메인 페이지
METAR-TAF:

METAR-TAF

공항 :

조모 케냐타 국제공항

나이로비, 케냐

위도: 01-19S, 경도: 036-55E, 고도: 1624m

METAR: 누락

시각: 13:00 (10:00 UTC)

예보

예보는 5 시간 0분 전, 05:00시(UTC)에 발표되었습니다.
예보 대상 시간: 13일 06시부터 14일 12시까지 (UTC)
남남서5kt
시정 10km 이상
고도 800ft 상공 구름 보통
고도 1800ft 상공 구름 많음
전환 중
13일 07시부터 13일 10시까지 (UTC)
10kt
고도 2500ft 상공 구름 많음
전환 중
13일 20시부터 13일 23시까지 (UTC)
여러 방향의 바람 3kt
고도 1800ft 상공 구름 보통
전환 중
14일 08시부터 14일 11시까지 (UTC)
10kt
고도 2300ft 상공 구름 많음

TAF: HKJK 130500Z 1306/1412 20005KT 9999 SCT008 BKN018 BECMG 1307/1310 09010KT BKN025 BECMG 1320/1323 VRB03KT SCT018 BECMG 1408/1411 09010KT BKN023

4,000개 이상의 공항 관측 자료 및 예보 (METAR 및 TAF 보고).

지도상에서 검색 가능한 기상관측소가 노란 점과 빨간 점으로 표시되어 있습니다.

기상관측소 명을 보려면 표시 위로 마우스를 이동하세요.

날씨 관측과 예보를 보려면 클릭하세요.

지도 변경 : 확대하려면 엑스 표시가 있는 녹색 버튼, 축소하려면 빼기 표시가 있는 녹색 버튼, 다음 페이지의 지도를 보려면 녹색 화살표를 클릭하세요.


METAR-TAF: